sensor_id;sensor_type;location;lat;lon;timestamp;pressure;altitude;pressure_sealevel;temperature;humidity
80323;BME280;69636;52.372;13.610;2023-12-14T00:02:03;100305.59;;;4.11;100.00
80323;BME280;69636;52.372;13.610;2023-12-14T00:04:30;100313.41;;;3.90;100.00
80323;BME280;69636;52.372;13.610;2023-12-14T00:06:59;100312.13;;;4.16;100.00
80323;BME280;69636;52.372;13.610;2023-12-14T00:09:26;100303.69;;;4.13;100.00
80323;BME280;69636;52.372;13.610;2023-12-14T00:11:53;100306.22;;;4.03;100.00
80323;BME280;69636;52.372;13.610;2023-12-14T00:14:21;100310.34;;;4.17;100.00
80323;BME280;69636;52.372;13.610;2023-12-14T00:16:57;100312.53;;;4.12;100.00
80323;BME280;69636;52.372;13.610;2023-12-14T00:19:27;100311.34;;;4.04;100.00
80323;BME280;69636;52.372;13.610;2023-12-14T00:21:55;100320.06;;;3.94;100.00
80323;BME280;69636;52.372;13.610;2023-12-14T00:24:23;100329.50;;;3.96;100.00
80323;BME280;69636;52.372;13.610;2023-12-14T00:26:51;100335.69;;;3.95;100.00
80323;BME280;69636;52.372;13.610;2023-12-14T00:29:18;100336.44;;;3.75;100.00
80323;BME280;69636;52.372;13.610;2023-12-14T00:31:45;100341.94;;;3.72;100.00
80323;BME280;69636;52.372;13.610;2023-12-14T00:34:21;100341.91;;;3.94;100.00
80323;BME280;69636;52.372;13.610;2023-12-14T00:36:48;100348.84;;;3.95;100.00
80323;BME280;69636;52.372;13.610;2023-12-14T00:39:15;100351.34;;;3.97;100.00
80323;BME280;69636;52.372;13.610;2023-12-14T00:41:53;100354.09;;;3.95;100.00
80323;BME280;69636;52.372;13.610;2023-12-14T00:44:20;100361.59;;;4.00;100.00
80323;BME280;69636;52.372;13.610;2023-12-14T00:47:13;100368.19;;;3.83;100.00
80323;BME280;69636;52.372;13.610;2023-12-14T00:49:40;100369.03;;;3.84;100.00
80323;BME280;69636;52.372;13.610;2023-12-14T00:52:07;100369.25;;;3.81;100.00
80323;BME280;69636;52.372;13.610;2023-12-14T00:57:53;100382.03;;;3.74;100.00
80323;BME280;69636;52.372;13.610;2023-12-14T01:00:43;100375.94;;;3.73;100.00
80323;BME280;69636;52.372;13.610;2023-12-14T01:03:32;100374.63;;;3.79;100.00
80323;BME280;69636;52.372;13.610;2023-12-14T01:05:59;100377.25;;;3.79;100.00
80323;BME280;69636;52.372;13.610;2023-12-14T01:08:27;100384.53;;;3.75;100.00
80323;BME280;69636;52.372;13.610;2023-12-14T01:14:26;100398.72;;;3.62;100.00
80323;BME280;69636;52.372;13.610;2023-12-14T01:16:53;100408.66;;;3.81;100.00
80323;BME280;69636;52.372;13.610;2023-12-14T01:19:25;100410.06;;;3.62;100.00
80323;BME280;69636;52.372;13.610;2023-12-14T01:21:52;100415.41;;;3.50;100.00
80323;BME280;69636;52.372;13.610;2023-12-14T01:24:20;100420.06;;;3.68;100.00
80323;BME280;69636;52.372;13.610;2023-12-14T01:26:47;100418.28;;;3.58;100.00
80323;BME280;69636;52.372;13.610;2023-12-14T01:29:14;100427.69;;;3.49;100.00
80323;BME280;69636;52.372;13.610;2023-12-14T01:31:43;100433.19;;;3.57;100.00
80323;BME280;69636;52.372;13.610;2023-12-14T01:34:10;100436.78;;;3.56;100.00
80323;BME280;69636;52.372;13.610;2023-12-14T01:36:47;100445.88;;;3.63;100.00
80323;BME280;69636;52.372;13.610;2023-12-14T01:39:17;100449.06;;;3.56;100.00
80323;BME280;69636;52.372;13.610;2023-12-14T01:41:44;100450.25;;;3.52;100.00
80323;BME280;69636;52.372;13.610;2023-12-14T01:44:14;100449.63;;;3.48;100.00
80323;BME280;69636;52.372;13.610;2023-12-14T01:46:53;100450.63;;;3.69;100.00
80323;BME280;69636;52.372;13.610;2023-12-14T01:49:21;100453.59;;;3.54;100.00
80323;BME280;69636;52.372;13.610;2023-12-14T01:51:48;100454.31;;;3.56;100.00
80323;BME280;69636;52.372;13.610;2023-12-14T01:54:15;100462.91;;;3.69;100.00
80323;BME280;69636;52.372;13.610;2023-12-14T01:56:42;100460.50;;;3.55;100.00
80323;BME280;69636;52.372;13.610;2023-12-14T01:59:10;100467.78;;;3.51;100.00
80323;BME280;69636;52.372;13.610;2023-12-14T02:01:40;100466.19;;;3.84;100.00
80323;BME280;69636;52.372;13.610;2023-12-14T02:04:10;100469.09;;;3.57;100.00
80323;BME280;69636;52.372;13.610;2023-12-14T02:06:38;100473.13;;;3.50;100.00
80323;BME280;69636;52.372;13.610;2023-12-14T02:09:06;100480.94;;;3.38;100.00
80323;BME280;69636;52.372;13.610;2023-12-14T02:11:33;100476.34;;;3.18;100.00
80323;BME280;69636;52.372;13.610;2023-12-14T02:14:03;100479.91;;;3.41;100.00
80323;BME280;69636;52.372;13.610;2023-12-14T02:16:31;100480.06;;;3.51;100.00
80323;BME280;69636;52.372;13.610;2023-12-14T02:18:58;100479.97;;;3.28;100.00
80323;BME280;69636;52.372;13.610;2023-12-14T02:21:27;100479.38;;;3.25;100.00
80323;BME280;69636;52.372;13.610;2023-12-14T02:23:56;100479.03;;;3.29;100.00
80323;BME280;69636;52.372;13.610;2023-12-14T02:26:23;100476.84;;;3.23;100.00
80323;BME280;69636;52.372;13.610;2023-12-14T02:28:50;100482.78;;;3.14;100.00
80323;BME280;69636;52.372;13.610;2023-12-14T02:31:19;100484.81;;;3.11;100.00
80323;BME280;69636;52.372;13.610;2023-12-14T02:33:46;100491.03;;;3.21;100.00
80323;BME280;69636;52.372;13.610;2023-12-14T02:36:14;100492.19;;;3.17;100.00
80323;BME280;69636;52.372;13.610;2023-12-14T02:38:41;100490.63;;;3.14;100.00
80323;BME280;69636;52.372;13.610;2023-12-14T02:41:10;100505.06;;;3.09;100.00
80323;BME280;69636;52.372;13.610;2023-12-14T02:43:37;100505.91;;;3.09;100.00
80323;BME280;69636;52.372;13.610;2023-12-14T02:46:04;100498.50;;;3.14;100.00
80323;BME280;69636;52.372;13.610;2023-12-14T02:48:32;100500.28;;;3.14;100.00
80323;BME280;69636;52.372;13.610;2023-12-14T02:50:59;100499.19;;;3.05;100.00
80323;BME280;69636;52.372;13.610;2023-12-14T02:53:27;100507.28;;;3.02;100.00
80323;BME280;69636;52.372;13.610;2023-12-14T02:55:54;100507.91;;;3.05;100.00
80323;BME280;69636;52.372;13.610;2023-12-14T02:58:23;100509.19;;;3.00;100.00
80323;BME280;69636;52.372;13.610;2023-12-14T03:00:50;100511.19;;;2.96;100.00
80323;BME280;69636;52.372;13.610;2023-12-14T03:03:17;100520.19;;;3.05;100.00
80323;BME280;69636;52.372;13.610;2023-12-14T03:05:45;100522.50;;;2.97;100.00
80323;BME280;69636;52.372;13.610;2023-12-14T03:08:13;100516.75;;;3.16;100.00
80323;BME280;69636;52.372;13.610;2023-12-14T03:10:40;100530.03;;;3.01;100.00
80323;BME280;69636;52.372;13.610;2023-12-14T03:13:07;100537.00;;;2.90;100.00
80323;BME280;69636;52.372;13.610;2023-12-14T03:15:36;100540.97;;;2.95;100.00
80323;BME280;69636;52.372;13.610;2023-12-14T03:18:03;100540.34;;;3.16;100.00
80323;BME280;69636;52.372;13.610;2023-12-14T03:20:31;100544.72;;;3.04;100.00
80323;BME280;69636;52.372;13.610;2023-12-14T03:22:58;100552.50;;;2.93;100.00
80323;BME280;69636;52.372;13.610;2023-12-14T03:25:25;100552.91;;;2.99;100.00
80323;BME280;69636;52.372;13.610;2023-12-14T03:27:53;100555.53;;;2.99;100.00
80323;BME280;69636;52.372;13.610;2023-12-14T03:30:20;100553.38;;;3.17;100.00
80323;BME280;69636;52.372;13.610;2023-12-14T03:32:49;100557.28;;;3.12;100.00
80323;BME280;69636;52.372;13.610;2023-12-14T03:35:16;100568.84;;;3.09;100.00
80323;BME280;69636;52.372;13.610;2023-12-14T03:37:43;100560.56;;;3.26;100.00
80323;BME280;69636;52.372;13.610;2023-12-14T03:40:11;100565.50;;;3.07;100.00
80323;BME280;69636;52.372;13.610;2023-12-14T03:42:38;100570.13;;;2.91;100.00
80323;BME280;69636;52.372;13.610;2023-12-14T03:45:06;100564.25;;;2.87;100.00
80323;BME280;69636;52.372;13.610;2023-12-14T03:47:34;100569.75;;;2.84;100.00
80323;BME280;69636;52.372;13.610;2023-12-14T03:50:03;100573.06;;;2.99;100.00
80323;BME280;69636;52.372;13.610;2023-12-14T03:52:30;100583.97;;;2.93;100.00
80323;BME280;69636;52.372;13.610;2023-12-14T03:54:58;100583.69;;;2.85;100.00
80323;BME280;69636;52.372;13.610;2023-12-14T03:57:25;100586.84;;;2.77;100.00
80323;BME280;69636;52.372;13.610;2023-12-14T03:59:52;100595.44;;;2.79;100.00
80323;BME280;69636;52.372;13.610;2023-12-14T04:02:20;100597.44;;;2.76;100.00
80323;BME280;69636;52.372;13.610;2023-12-14T04:04:47;100601.72;;;2.77;100.00
80323;BME280;69636;52.372;13.610;2023-12-14T04:07:16;100597.66;;;2.85;100.00
80323;BME280;69636;52.372;13.610;2023-12-14T04:09:44;100600.78;;;2.78;100.00
80323;BME280;69636;52.372;13.610;2023-12-14T04:12:11;100606.88;;;2.65;100.00
80323;BME280;69636;52.372;13.610;2023-12-14T04:14:38;100607.81;;;2.64;100.00
80323;BME280;69636;52.372;13.610;2023-12-14T04:17:06;100615.69;;;2.64;100.00
80323;BME280;69636;52.372;13.610;2023-12-14T04:19:33;100618.72;;;2.71;100.00
80323;BME280;69636;52.372;13.610;2023-12-14T04:22:00;100618.81;;;2.69;100.00
80323;BME280;69636;52.372;13.610;2023-12-14T04:24:29;100620.19;;;2.75;100.00
80323;BME280;69636;52.372;13.610;2023-12-14T04:26:56;100626.28;;;2.76;100.00
80323;BME280;69636;52.372;13.610;2023-12-14T04:29:23;100629.31;;;2.69;100.00
80323;BME280;69636;52.372;13.610;2023-12-14T04:31:50;100636.44;;;2.67;100.00
80323;BME280;69636;52.372;13.610;2023-12-14T04:34:17;100636.03;;;2.73;100.00
80323;BME280;69636;52.372;13.610;2023-12-14T04:36:45;100636.22;;;2.70;100.00
80323;BME280;69636;52.372;13.610;2023-12-14T04:39:12;100641.69;;;2.67;100.00
80323;BME280;69636;52.372;13.610;2023-12-14T04:41:41;100646.50;;;2.73;100.00
80323;BME280;69636;52.372;13.610;2023-12-14T04:44:08;100651.97;;;2.70;100.00
80323;BME280;69636;52.372;13.610;2023-12-14T04:46:36;100663.69;;;2.78;100.00
80323;BME280;69636;52.372;13.610;2023-12-14T04:49:03;100659.50;;;2.75;100.00
80323;BME280;69636;52.372;13.610;2023-12-14T04:51:30;100675.53;;;2.70;100.00
80323;BME280;69636;52.372;13.610;2023-12-14T04:53:58;100673.34;;;2.64;100.00
80323;BME280;69636;52.372;13.610;2023-12-14T04:56:25;100676.78;;;2.90;100.00
80323;BME280;69636;52.372;13.610;2023-12-14T04:58:54;100677.22;;;2.71;100.00
80323;BME280;69636;52.372;13.610;2023-12-14T05:01:21;100678.06;;;2.72;100.00
80323;BME280;69636;52.372;13.610;2023-12-14T05:03:48;100677.53;;;2.80;100.00
80323;BME280;69636;52.372;13.610;2023-12-14T05:06:16;100689.72;;;2.81;100.00
80323;BME280;69636;52.372;13.610;2023-12-14T05:08:43;100686.56;;;2.76;100.00
80323;BME280;69636;52.372;13.610;2023-12-14T05:11:12;100680.16;;;2.67;100.00
80323;BME280;69636;52.372;13.610;2023-12-14T05:13:39;100683.41;;;2.70;100.00
80323;BME280;69636;52.372;13.610;2023-12-14T05:16:12;100690.75;;;2.65;100.00
80323;BME280;69636;52.372;13.610;2023-12-14T05:18:40;100690.97;;;2.75;100.00
80323;BME280;69636;52.372;13.610;2023-12-14T05:21:08;100698.50;;;2.80;100.00
80323;BME280;69636;52.372;13.610;2023-12-14T05:23:35;100702.09;;;2.79;100.00
80323;BME280;69636;52.372;13.610;2023-12-14T05:26:02;100709.09;;;2.91;100.00
80323;BME280;69636;52.372;13.610;2023-12-14T05:28:30;100711.63;;;2.80;100.00
80323;BME280;69636;52.372;13.610;2023-12-14T05:30:57;100712.25;;;2.70;100.00
80323;BME280;69636;52.372;13.610;2023-12-14T05:33:26;100715.19;;;2.79;100.00
80323;BME280;69636;52.372;13.610;2023-12-14T05:35:53;100719.25;;;2.70;100.00
80323;BME280;69636;52.372;13.610;2023-12-14T05:38:20;100724.94;;;2.77;100.00
80323;BME280;69636;52.372;13.610;2023-12-14T05:40:48;100739.63;;;2.79;100.00
80323;BME280;69636;52.372;13.610;2023-12-14T05:43:15;100737.84;;;2.80;100.00
80323;BME280;69636;52.372;13.610;2023-12-14T05:45:42;100747.19;;;2.84;100.00
80323;BME280;69636;52.372;13.610;2023-12-14T05:48:10;100765.09;;;2.90;100.00
80323;BME280;69636;52.372;13.610;2023-12-14T05:50:38;100767.41;;;2.82;100.00
80323;BME280;69636;52.372;13.610;2023-12-14T05:53:06;100773.50;;;2.82;100.00
80323;BME280;69636;52.372;13.610;2023-12-14T05:55:33;100777.06;;;2.81;100.00
80323;BME280;69636;52.372;13.610;2023-12-14T05:58:00;100772.53;;;2.70;100.00
80323;BME280;69636;52.372;13.610;2023-12-14T06:00:28;100774.41;;;2.68;100.00
80323;BME280;69636;52.372;13.610;2023-12-14T06:02:55;100776.81;;;2.71;100.00
80323;BME280;69636;52.372;13.610;2023-12-14T06:05:22;100783.25;;;2.80;100.00
80323;BME280;69636;52.372;13.610;2023-12-14T06:07:51;100784.81;;;2.83;100.00
80323;BME280;69636;52.372;13.610;2023-12-14T06:10:19;100787.94;;;2.88;100.00
80323;BME280;69636;52.372;13.610;2023-12-14T06:12:46;100797.59;;;2.75;100.00
80323;BME280;69636;52.372;13.610;2023-12-14T06:15:13;100785.97;;;2.79;100.00
80323;BME280;69636;52.372;13.610;2023-12-14T06:17:41;100786.59;;;2.95;100.00
80323;BME280;69636;52.372;13.610;2023-12-14T06:20:11;100790.47;;;2.77;100.00
80323;BME280;69636;52.372;13.610;2023-12-14T06:22:38;100796.22;;;2.69;100.00
80323;BME280;69636;52.372;13.610;2023-12-14T06:25:08;100803.78;;;2.73;100.00
80323;BME280;69636;52.372;13.610;2023-12-14T06:27:35;100808.69;;;2.65;100.00
80323;BME280;69636;52.372;13.610;2023-12-14T06:30:03;100811.75;;;2.72;100.00
80323;BME280;69636;52.372;13.610;2023-12-14T06:32:30;100815.31;;;2.71;100.00
80323;BME280;69636;52.372;13.610;2023-12-14T06:34:58;100823.91;;;2.73;100.00
80323;BME280;69636;52.372;13.610;2023-12-14T06:37:25;100820.66;;;2.69;100.00
80323;BME280;69636;52.372;13.610;2023-12-14T06:39:52;100818.22;;;2.66;100.00
80323;BME280;69636;52.372;13.610;2023-12-14T06:42:21;100816.97;;;2.72;100.00
80323;BME280;69636;52.372;13.610;2023-12-14T06:44:48;100819.91;;;2.67;100.00
80323;BME280;69636;52.372;13.610;2023-12-14T06:47:16;100820.94;;;2.65;100.00
80323;BME280;69636;52.372;13.610;2023-12-14T06:49:43;100825.84;;;2.96;100.00
80323;BME280;69636;52.372;13.610;2023-12-14T06:52:10;100833.25;;;2.77;100.00
80323;BME280;69636;52.372;13.610;2023-12-14T06:54:38;100839.00;;;2.69;100.00
80323;BME280;69636;52.372;13.610;2023-12-14T06:57:06;100842.91;;;2.77;100.00
80323;BME280;69636;52.372;13.610;2023-12-14T06:59:34;100847.16;;;2.65;100.00
80323;BME280;69636;52.372;13.610;2023-12-14T07:02:02;100854.81;;;2.68;100.00
80323;BME280;69636;52.372;13.610;2023-12-14T07:04:29;100861.53;;;2.72;100.00
80323;BME280;69636;52.372;13.610;2023-12-14T07:06:56;100865.44;;;2.79;100.00
80323;BME280;69636;52.372;13.610;2023-12-14T07:09:24;100869.41;;;2.72;100.00
80323;BME280;69636;52.372;13.610;2023-12-14T07:11:51;100876.53;;;2.70;100.00
80323;BME280;69636;52.372;13.610;2023-12-14T07:14:19;100871.34;;;2.83;100.00
80323;BME280;69636;52.372;13.610;2023-12-14T07:16:50;100882.69;;;2.96;100.00
80323;BME280;69636;52.372;13.610;2023-12-14T07:19:17;100888.59;;;2.72;100.00
80323;BME280;69636;52.372;13.610;2023-12-14T07:21:44;100894.97;;;2.68;100.00
80323;BME280;69636;52.372;13.610;2023-12-14T07:24:12;100898.34;;;2.70;100.00
80323;BME280;69636;52.372;13.610;2023-12-14T07:26:39;100906.09;;;2.72;100.00
80323;BME280;69636;52.372;13.610;2023-12-14T07:29:06;100907.13;;;2.69;100.00
80323;BME280;69636;52.372;13.610;2023-12-14T07:31:33;100906.34;;;2.82;100.00
80323;BME280;69636;52.372;13.610;2023-12-14T07:34:02;100922.28;;;2.79;100.00
80323;BME280;69636;52.372;13.610;2023-12-14T07:36:29;100929.41;;;2.77;100.00
80323;BME280;69636;52.372;13.610;2023-12-14T07:38:57;100934.34;;;2.81;100.00
80323;BME280;69636;52.372;13.610;2023-12-14T07:41:24;100936.69;;;2.86;100.00
80323;BME280;69636;52.372;13.610;2023-12-14T07:43:51;100941.75;;;2.75;100.00
80323;BME280;69636;52.372;13.610;2023-12-14T07:46:18;100941.94;;;2.98;100.00
80323;BME280;69636;52.372;13.610;2023-12-14T07:48:46;100949.78;;;2.86;100.00
80323;BME280;69636;52.372;13.610;2023-12-14T07:51:14;100958.34;;;2.75;100.00
80323;BME280;69636;52.372;13.610;2023-12-14T07:53:42;100962.38;;;2.66;100.00
80323;BME280;69636;52.372;13.610;2023-12-14T07:56:09;100967.72;;;2.65;100.00
80323;BME280;69636;52.372;13.610;2023-12-14T07:58:36;100964.81;;;2.69;100.00
80323;BME280;69636;52.372;13.610;2023-12-14T08:01:04;100972.47;;;2.99;100.00
80323;BME280;69636;52.372;13.610;2023-12-14T08:03:31;100965.94;;;2.92;100.00
80323;BME280;69636;52.372;13.610;2023-12-14T08:05:59;100978.41;;;2.89;100.00
80323;BME280;69636;52.372;13.610;2023-12-14T08:08:28;100982.06;;;2.86;100.00
80323;BME280;69636;52.372;13.610;2023-12-14T08:10:55;100982.78;;;3.02;100.00
80323;BME280;69636;52.372;13.610;2023-12-14T08:13:22;100990.66;;;3.15;100.00
80323;BME280;69636;52.372;13.610;2023-12-14T08:15:49;100995.41;;;3.10;100.00
80323;BME280;69636;52.372;13.610;2023-12-14T08:18:17;100989.44;;;2.94;100.00
80323;BME280;69636;52.372;13.610;2023-12-14T08:20:44;100995.31;;;2.85;100.00
80323;BME280;69636;52.372;13.610;2023-12-14T08:23:11;101001.56;;;2.82;100.00
80323;BME280;69636;52.372;13.610;2023-12-14T08:25:40;101007.66;;;2.83;100.00
80323;BME280;69636;52.372;13.610;2023-12-14T08:28:07;101004.09;;;2.84;100.00
80323;BME280;69636;52.372;13.610;2023-12-14T08:30:35;101006.16;;;2.79;100.00
80323;BME280;69636;52.372;13.610;2023-12-14T08:33:05;101004.09;;;2.84;100.00
80323;BME280;69636;52.372;13.610;2023-12-14T08:35:32;101017.69;;;2.76;100.00
80323;BME280;69636;52.372;13.610;2023-12-14T08:37:59;101019.84;;;2.69;100.00
80323;BME280;69636;52.372;13.610;2023-12-14T08:40:26;101032.66;;;2.74;100.00
80323;BME280;69636;52.372;13.610;2023-12-14T08:42:55;101035.91;;;2.92;100.00
80323;BME280;69636;52.372;13.610;2023-12-14T08:45:22;101042.69;;;2.82;100.00
80323;BME280;69636;52.372;13.610;2023-12-14T08:47:50;101051.50;;;3.08;100.00
80323;BME280;69636;52.372;13.610;2023-12-14T08:50:17;101053.69;;;3.01;100.00
80323;BME280;69636;52.372;13.610;2023-12-14T08:52:45;101053.59;;;3.02;100.00
80323;BME280;69636;52.372;13.610;2023-12-14T08:55:12;101055.38;;;2.88;100.00
80323;BME280;69636;52.372;13.610;2023-12-14T08:57:39;101069.78;;;2.95;100.00
80323;BME280;69636;52.372;13.610;2023-12-14T09:00:09;101071.84;;;2.90;100.00
80323;BME280;69636;52.372;13.610;2023-12-14T09:02:37;101074.09;;;3.10;100.00
80323;BME280;69636;52.372;13.610;2023-12-14T09:05:05;101076.16;;;2.91;100.00
80323;BME280;69636;52.372;13.610;2023-12-14T09:07:33;101083.13;;;2.78;100.00
80323;BME280;69636;52.372;13.610;2023-12-14T09:10:00;101090.91;;;2.79;100.00
80323;BME280;69636;52.372;13.610;2023-12-14T09:12:27;101086.94;;;2.86;100.00
80323;BME280;69636;52.372;13.610;2023-12-14T09:14:55;101096.25;;;2.78;100.00
80323;BME280;69636;52.372;13.610;2023-12-14T09:17:23;101101.81;;;3.00;100.00
80323;BME280;69636;52.372;13.610;2023-12-14T09:19:51;101094.97;;;3.12;100.00
80323;BME280;69636;52.372;13.610;2023-12-14T09:22:18;101099.38;;;2.97;100.00
80323;BME280;69636;52.372;13.610;2023-12-14T09:24:45;101096.19;;;3.06;100.00
80323;BME280;69636;52.372;13.610;2023-12-14T09:27:13;101105.13;;;3.30;100.00
80323;BME280;69636;52.372;13.610;2023-12-14T09:29:40;101103.94;;;3.22;100.00
80323;BME280;69636;52.372;13.610;2023-12-14T09:32:07;101107.16;;;2.98;100.00
80323;BME280;69636;52.372;13.610;2023-12-14T09:34:36;101115.50;;;2.91;100.00
80323;BME280;69636;52.372;13.610;2023-12-14T09:37:04;101124.91;;;2.81;100.00
80323;BME280;69636;52.372;13.610;2023-12-14T09:39:31;101124.03;;;2.94;100.00
80323;BME280;69636;52.372;13.610;2023-12-14T09:42:02;101121.63;;;3.18;100.00
80323;BME280;69636;52.372;13.610;2023-12-14T09:44:30;101129.50;;;3.18;100.00
80323;BME280;69636;52.372;13.610;2023-12-14T09:46:59;101134.00;;;3.16;100.00
80323;BME280;69636;52.372;13.610;2023-12-14T09:49:26;101139.44;;;3.13;100.00
80323;BME280;69636;52.372;13.610;2023-12-14T09:51:55;101144.06;;;3.10;100.00
80323;BME280;69636;52.372;13.610;2023-12-14T09:54:23;101145.25;;;3.18;100.00
80323;BME280;69636;52.372;13.610;2023-12-14T09:56:50;101147.13;;;3.16;100.00
80323;BME280;69636;52.372;13.610;2023-12-14T09:59:18;101152.31;;;3.03;100.00
80323;BME280;69636;52.372;13.610;2023-12-14T10:01:45;101153.44;;;2.99;100.00
80323;BME280;69636;52.372;13.610;2023-12-14T10:04:14;101155.19;;;3.13;100.00
80323;BME280;69636;52.372;13.610;2023-12-14T10:06:44;101157.84;;;2.99;100.00
80323;BME280;69636;52.372;13.610;2023-12-14T10:09:13;101169.34;;;2.96;100.00
80323;BME280;69636;52.372;13.610;2023-12-14T10:11:41;101164.84;;;2.98;100.00
80323;BME280;69636;52.372;13.610;2023-12-14T10:14:18;101158.38;;;3.18;100.00
80323;BME280;69636;52.372;13.610;2023-12-14T10:16:54;101166.09;;;3.07;100.00
80323;BME280;69636;52.372;13.610;2023-12-14T10:19:30;101170.75;;;3.02;100.00
80323;BME280;69636;52.372;13.610;2023-12-14T10:21:57;101172.06;;;2.95;100.00
80323;BME280;69636;52.372;13.610;2023-12-14T10:24:26;101174.31;;;3.01;100.00
80323;BME280;69636;52.372;13.610;2023-12-14T10:26:53;101177.94;;;3.13;100.00
80323;BME280;69636;52.372;13.610;2023-12-14T10:29:20;101174.00;;;3.20;100.00
80323;BME280;69636;52.372;13.610;2023-12-14T10:31:48;101181.91;;;3.05;100.00
80323;BME280;69636;52.372;13.610;2023-12-14T10:34:15;101184.03;;;3.13;100.00
80323;BME280;69636;52.372;13.610;2023-12-14T10:36:45;101186.41;;;3.03;100.00
80323;BME280;69636;52.372;13.610;2023-12-14T10:39:14;101189.28;;;3.27;100.00
80323;BME280;69636;52.372;13.610;2023-12-14T10:41:43;101186.66;;;3.27;100.00
80323;BME280;69636;52.372;13.610;2023-12-14T10:44:18;101191.94;;;2.99;100.00
80323;BME280;69636;52.372;13.610;2023-12-14T10:47:06;101196.50;;;3.24;100.00
80323;BME280;69636;52.372;13.610;2023-12-14T10:49:34;101201.09;;;3.20;100.00
80323;BME280;69636;52.372;13.610;2023-12-14T10:52:03;101198.38;;;3.22;100.00
80323;BME280;69636;52.372;13.610;2023-12-14T10:54:32;101204.81;;;3.45;100.00
80323;BME280;69636;52.372;13.610;2023-12-14T10:57:03;101210.28;;;3.27;100.00
80323;BME280;69636;52.372;13.610;2023-12-14T10:59:31;101211.69;;;3.33;100.00
80323;BME280;69636;52.372;13.610;2023-12-14T11:01:58;101221.44;;;3.31;100.00
80323;BME280;69636;52.372;13.610;2023-12-14T11:04:26;101222.91;;;3.21;100.00
80323;BME280;69636;52.372;13.610;2023-12-14T11:06:53;101225.16;;;3.27;100.00
80323;BME280;69636;52.372;13.610;2023-12-14T11:09:22;101226.84;;;3.14;100.00
80323;BME280;69636;52.372;13.610;2023-12-14T11:11:55;101224.88;;;3.17;100.00
80323;BME280;69636;52.372;13.610;2023-12-14T11:14:25;101240.47;;;3.06;100.00
80323;BME280;69636;52.372;13.610;2023-12-14T11:16:54;101233.59;;;3.18;100.00
80323;BME280;69636;52.372;13.610;2023-12-14T11:19:29;101241.31;;;3.06;100.00
80323;BME280;69636;52.372;13.610;2023-12-14T11:22:11;101249.06;;;3.22;100.00
80323;BME280;69636;52.372;13.610;2023-12-14T11:24:41;101243.59;;;3.39;100.00
80323;BME280;69636;52.372;13.610;2023-12-14T11:27:09;101247.56;;;3.32;100.00
80323;BME280;69636;52.372;13.610;2023-12-14T11:29:38;101253.00;;;3.29;100.00
80323;BME280;69636;52.372;13.610;2023-12-14T11:32:06;101246.78;;;3.45;100.00
80323;BME280;69636;52.372;13.610;2023-12-14T11:34:33;101241.34;;;3.48;100.00
80323;BME280;69636;52.372;13.610;2023-12-14T11:37:00;101241.34;;;3.48;100.00
80323;BME280;69636;52.372;13.610;2023-12-14T11:39:30;101243.50;;;3.41;100.00
80323;BME280;69636;52.372;13.610;2023-12-14T11:41:59;101238.28;;;3.27;100.00
80323;BME280;69636;52.372;13.610;2023-12-14T11:44:26;101242.78;;;3.25;100.00
80323;BME280;69636;52.372;13.610;2023-12-14T11:46:55;101250.28;;;3.31;100.00
80323;BME280;69636;52.372;13.610;2023-12-14T11:49:24;101251.97;;;3.32;100.00
80323;BME280;69636;52.372;13.610;2023-12-14T11:51:51;101260.94;;;3.56;100.00
80323;BME280;69636;52.372;13.610;2023-12-14T11:54:19;101251.00;;;3.47;100.00
80323;BME280;69636;52.372;13.610;2023-12-14T11:56:46;101253.47;;;3.36;100.00
80323;BME280;69636;52.372;13.610;2023-12-14T11:59:14;101261.56;;;3.74;100.00
80323;BME280;69636;52.372;13.610;2023-12-14T12:01:55;101271.25;;;3.59;100.00
80323;BME280;69636;52.372;13.610;2023-12-14T12:04:22;101269.13;;;3.37;100.00
80323;BME280;69636;52.372;13.610;2023-12-14T12:06:50;101272.78;;;3.35;100.00
80323;BME280;69636;52.372;13.610;2023-12-14T12:09:36;101281.13;;;3.27;100.00
80323;BME280;69636;52.372;13.610;2023-12-14T12:12:07;101284.84;;;3.23;100.00
80323;BME280;69636;52.372;13.610;2023-12-14T12:14:35;101286.91;;;3.61;100.00
80323;BME280;69636;52.372;13.610;2023-12-14T12:17:05;101293.63;;;3.65;100.00
80323;BME280;69636;52.372;13.610;2023-12-14T12:19:33;101299.56;;;3.40;100.00
80323;BME280;69636;52.372;13.610;2023-12-14T12:22:00;101308.38;;;3.25;100.00
80323;BME280;69636;52.372;13.610;2023-12-14T12:24:28;101306.03;;;3.20;100.00
80323;BME280;69636;52.372;13.610;2023-12-14T12:26:57;101309.94;;;3.13;100.00
80323;BME280;69636;52.372;13.610;2023-12-14T12:29:25;101309.03;;;3.28;100.00
80323;BME280;69636;52.372;13.610;2023-12-14T12:31:52;101310.47;;;3.34;100.00
80323;BME280;69636;52.372;13.610;2023-12-14T12:34:20;101310.53;;;3.18;100.00
80323;BME280;69636;52.372;13.610;2023-12-14T12:36:48;101309.94;;;3.13;100.00
80323;BME280;69636;52.372;13.610;2023-12-14T12:39:15;101315.50;;;3.09;100.00
80323;BME280;69636;52.372;13.610;2023-12-14T12:41:42;101319.91;;;3.08;100.00
80323;BME280;69636;52.372;13.610;2023-12-14T12:44:10;101324.38;;;3.06;100.00
80323;BME280;69636;52.372;13.610;2023-12-14T12:46:38;101322.53;;;3.08;100.00
80323;BME280;69636;52.372;13.610;2023-12-14T12:49:05;101324.97;;;3.11;100.00
80323;BME280;69636;52.372;13.610;2023-12-14T12:51:34;101329.63;;;3.06;100.00
80323;BME280;69636;52.372;13.610;2023-12-14T12:54:01;101337.28;;;2.95;100.00